Terminal Aerodrome Forecast
Issued by NWS

Current Version | Previous Version | Graphics & Text | Print | Product List | Glossary Off
Versions: 1 2 3 4 5 6 7 8 9 10 11 12 13 14 15 16 17

000
FTUS41 KILN 282330
TAFLCK
TAF
KLCK 282330Z 2900/2924 34011KT P6SM OVC025
     FM290300 36005KT P6SM OVC018
     FM291400 03005KT P6SM BKN022
     FM291600 04006KT P6SM BKN050
     FM291800 05006KT P6SM SCT200=

USA.gov is the U.S. government's official web portal to all federal, state and local government web resources and services.